createdAt,value
2023-02-21T00:02:04.510Z,96760.59
2023-02-21T00:04:50.505Z,96759.78
2023-02-21T00:07:37.584Z,96762.56
2023-02-21T00:10:24.298Z,96759.38
2023-02-21T00:13:10.534Z,96769.94
2023-02-21T00:15:57.799Z,96771.75
2023-02-21T00:18:43.603Z,96759.50
2023-02-21T00:21:29.446Z,96771.19
2023-02-21T00:24:15.409Z,96769.84
2023-02-21T00:27:01.171Z,96771.25
2023-02-21T00:29:47.260Z,96771.25
2023-02-21T00:32:34.719Z,96757.50
2023-02-21T00:35:20.642Z,96766.38
2023-02-21T00:38:08.548Z,96761.03
2023-02-21T00:40:54.510Z,96762.59
2023-02-21T00:43:47.084Z,96759.38
2023-02-21T00:46:32.884Z,96757.47
2023-02-21T00:49:20.296Z,96756.66
2023-02-21T00:52:06.152Z,96758.91
2023-02-21T00:54:52.358Z,96754.91
2023-02-21T00:57:40.611Z,96757.25
2023-02-21T01:00:32.757Z,96757.56
2023-02-21T01:03:18.712Z,96757.97
2023-02-21T01:06:05.796Z,96752.59
2023-02-21T01:08:51.746Z,96753.84
2023-02-21T01:11:40.181Z,96764.81
2023-02-21T01:14:28.430Z,96764.53
2023-02-21T01:17:14.594Z,96754.69
2023-02-21T01:20:00.701Z,96763.59
2023-02-21T01:22:48.054Z,96759.81
2023-02-21T01:25:34.480Z,96751.09
2023-02-21T01:28:20.473Z,96745.66
2023-02-21T01:31:06.285Z,96747.22
2023-02-21T01:33:55.298Z,96743.75
2023-02-21T01:36:41.351Z,96741.13
2023-02-21T01:39:29.027Z,96742.50
2023-02-21T01:42:15.046Z,96737.53
2023-02-21T01:45:02.556Z,96727.81
2023-02-21T01:47:49.394Z,96731.44
2023-02-21T01:50:39.666Z,96733.38
2023-02-21T01:53:30.454Z,96728.25
2023-02-21T01:56:20.065Z,96726.19
2023-02-21T01:59:09.665Z,96725.44
2023-02-21T02:02:02.913Z,96717.16
2023-02-21T02:04:50.918Z,96708.56
2023-02-21T02:07:37.361Z,96716.03
2023-02-21T02:10:25.859Z,96708.13
2023-02-21T02:13:10.336Z,96708.69
2023-02-21T02:15:50.523Z,96705.59
2023-02-21T02:18:52.994Z,96703.53
2023-02-21T02:21:59.172Z,96698.84
2023-02-21T02:25:00.192Z,96687.50
2023-02-21T02:28:00.157Z,96697.34
2023-02-21T02:31:14.085Z,96696.91
2023-02-21T02:34:15.703Z,96692.34
2023-02-21T02:36:50.268Z,96694.13
2023-02-21T02:39:28.813Z,96692.34
2023-02-21T02:42:08.630Z,96691.38
2023-02-21T02:44:41.104Z,96688.59
2023-02-21T02:47:15.342Z,96678.34
2023-02-21T02:49:45.544Z,96685.22
2023-02-21T02:52:15.216Z,96684.16
2023-02-21T02:54:43.578Z,96677.78
2023-02-21T02:57:13.241Z,96682.63
2023-02-21T02:59:46.666Z,96675.03
2023-02-21T03:02:36.646Z,96665.78
2023-02-21T03:05:17.348Z,96664.53
2023-02-21T03:07:59.402Z,96661.78
2023-02-21T03:10:39.802Z,96665.63
2023-02-21T03:13:16.913Z,96658.84
2023-02-21T03:15:50.836Z,96663.03
2023-02-21T03:18:27.072Z,96653.47
2023-02-21T03:20:58.990Z,96658.84
2023-02-21T03:23:31.978Z,96658.03
2023-02-21T03:26:03.952Z,96658.97
2023-02-21T03:28:34.614Z,96657.22
2023-02-21T03:31:05.968Z,96657.03
2023-02-21T03:33:34.881Z,96660.66
2023-02-21T03:36:05.812Z,96663.41
2023-02-21T03:38:35.787Z,96655.97
2023-02-21T03:41:04.183Z,96664.94
2023-02-21T03:43:32.915Z,96660.09
2023-02-21T03:46:01.359Z,96660.09
2023-02-21T03:48:32.440Z,96662.72
2023-02-21T03:51:01.154Z,96655.09
2023-02-21T03:53:29.548Z,96660.78
2023-02-21T03:55:59.315Z,96663.25
2023-02-21T03:58:27.654Z,96667.69
2023-02-21T04:00:56.029Z,96672.97
2023-02-21T04:03:24.768Z,96672.09
2023-02-21T04:05:53.260Z,96668.88
2023-02-21T04:08:21.630Z,96670.81
2023-02-21T04:10:52.548Z,96673.75
2023-02-21T04:13:25.037Z,96671.66
2023-02-21T04:15:53.421Z,96681.59
2023-02-21T04:18:21.772Z,96673.28
2023-02-21T04:20:50.875Z,96674.25
2023-02-21T04:23:21.470Z,96682.25
2023-02-21T04:25:49.986Z,96685.97
2023-02-21T04:28:18.540Z,96676.56
2023-02-21T04:30:48.382Z,96669.91
2023-02-21T04:33:18.512Z,96671.81
2023-02-21T04:35:48.809Z,96683.06
2023-02-21T04:38:17.454Z,96689.69
2023-02-21T04:40:45.979Z,96691.19
2023-02-21T04:43:14.456Z,96694.56
2023-02-21T04:45:42.877Z,96700.06
2023-02-21T04:48:12.638Z,96692.47
2023-02-21T04:50:40.935Z,96684.28
2023-02-21T04:53:09.431Z,96685.38
2023-02-21T04:55:37.971Z,96689.34
2023-02-21T04:58:06.475Z,96682.81
2023-02-21T05:00:34.957Z,96686.38
2023-02-21T05:03:03.327Z,96689.97
2023-02-21T05:05:33.228Z,96673.41
2023-02-21T05:08:01.654Z,96677.09
2023-02-21T05:10:44.666Z,96670.22
2023-02-21T05:13:14.037Z,96678.59
2023-02-21T05:15:42.387Z,96678.38
2023-02-21T05:18:10.788Z,96661.63
2023-02-21T05:20:40.481Z,96670.25
2023-02-21T05:23:13.882Z,96666.47
2023-02-21T05:25:44.332Z,96668.16
2023-02-21T05:28:12.669Z,96668.09
2023-02-21T05:30:41.505Z,96665.75
2023-02-21T05:33:09.981Z,96662.16
2023-02-21T05:35:38.346Z,96670.97
2023-02-21T05:38:08.030Z,96662.41
2023-02-21T05:40:36.408Z,96663.22
2023-02-21T05:43:04.814Z,96666.22
2023-02-21T05:45:33.118Z,96660.75
2023-02-21T05:48:02.521Z,96666.28
2023-02-21T05:50:31.879Z,96669.72
2023-02-21T05:53:01.013Z,96658.13
2023-02-21T05:55:30.671Z,96658.03
2023-02-21T05:57:59.074Z,96663.75
2023-02-21T06:00:29.675Z,96656.31
2023-02-21T06:02:58.004Z,96659.41
2023-02-21T06:05:26.603Z,96656.50
2023-02-21T06:07:54.940Z,96657.25
2023-02-21T06:10:23.253Z,96655.34
2023-02-21T06:12:52.977Z,96653.16
2023-02-21T06:15:21.275Z,96644.91
2023-02-21T06:17:49.579Z,96656.81
2023-02-21T06:20:17.968Z,96650.94
2023-02-21T06:22:47.375Z,96649.59
2023-02-21T06:25:16.283Z,96643.97
2023-02-21T06:27:44.974Z,96645.25
2023-02-21T06:30:15.442Z,96647.34
2023-02-21T06:32:48.025Z,96646.84
2023-02-21T06:35:16.544Z,96652.41
2023-02-21T06:37:44.915Z,96652.84
2023-02-21T06:40:13.862Z,96650.78
2023-02-21T06:42:42.168Z,96642.69
2023-02-21T06:45:10.588Z,96644.19
2023-02-21T06:47:40.312Z,96638.56
2023-02-21T06:50:10.498Z,96645.22
2023-02-21T06:52:38.854Z,96662.38
2023-02-21T06:55:08.669Z,96648.03
2023-02-21T06:57:36.974Z,96648.31
2023-02-21T07:00:06.813Z,96649.88
2023-02-21T07:02:35.810Z,96640.75
2023-02-21T07:05:06.061Z,96649.22
2023-02-21T07:07:34.383Z,96645.22
2023-02-21T07:10:02.720Z,96660.31
2023-02-21T07:12:34.193Z,96653.72
2023-02-21T07:15:02.573Z,96659.28
2023-02-21T07:17:30.903Z,96654.31
2023-02-21T07:19:59.331Z,96651.00
2023-02-21T07:22:29.103Z,96652.03
2023-02-21T07:24:57.634Z,96656.72
2023-02-21T07:27:26.035Z,96657.00
2023-02-21T07:29:54.386Z,96658.00
2023-02-21T07:34:51.100Z,96643.88
2023-02-21T07:37:19.448Z,96642.38
2023-02-21T07:39:50.187Z,96648.47
2023-02-21T07:42:18.560Z,96641.56
2023-02-21T07:44:47.927Z,96646.25
2023-02-21T07:47:16.907Z,96649.19
2023-02-21T07:49:48.095Z,96653.72
2023-02-21T07:52:16.537Z,96655.66
2023-02-21T07:54:44.889Z,96661.34
2023-02-21T07:57:14.622Z,96664.09
2023-02-21T07:59:42.981Z,96661.75
2023-02-21T08:02:12.796Z,96667.94
2023-02-21T08:04:41.656Z,96677.78
2023-02-21T08:07:10.414Z,96679.00
2023-02-21T08:09:39.921Z,96677.34
2023-02-21T08:12:08.266Z,96680.22
2023-02-21T08:14:37.943Z,96689.91
2023-02-21T08:17:06.296Z,96684.59
2023-02-21T08:19:34.648Z,96687.63
2023-02-21T08:22:08.117Z,96686.50
2023-02-21T08:24:36.466Z,96696.91
2023-02-21T08:27:04.923Z,96680.09
2023-02-21T08:29:33.279Z,96684.56
2023-02-21T08:32:03.106Z,96684.25
2023-02-21T08:34:31.474Z,96683.84
2023-02-21T08:36:59.812Z,96677.00
2023-02-21T08:39:30.106Z,96674.47
2023-02-21T08:41:58.454Z,96676.09
2023-02-21T08:44:26.795Z,96677.84
2023-02-21T08:46:55.232Z,96683.06
2023-02-21T08:49:24.954Z,96684.81
2023-02-21T08:51:55.059Z,96682.94
2023-02-21T08:54:23.394Z,96692.75
2023-02-21T08:56:52.091Z,96703.56
2023-02-21T08:59:20.574Z,96696.53
2023-02-21T09:01:49.162Z,96706.88
2023-02-21T09:04:21.181Z,96710.78
2023-02-21T09:06:56.530Z,96698.69
2023-02-21T09:09:25.123Z,96689.25
2023-02-21T09:11:53.510Z,96689.16
2023-02-21T09:14:21.864Z,96690.72
2023-02-21T09:16:50.222Z,96702.81
2023-02-21T09:19:18.654Z,96697.59
2023-02-21T09:21:49.538Z,96700.97
2023-02-21T09:24:19.326Z,96704.47
2023-02-21T09:26:49.557Z,96700.91
2023-02-21T09:29:19.471Z,96700.94
2023-02-21T09:31:47.901Z,96708.25
2023-02-21T09:34:19.603Z,96700.66
2023-02-21T09:36:57.943Z,96703.69
2023-02-21T09:39:27.707Z,96706.31
2023-02-21T09:41:57.660Z,96700.03
2023-02-21T09:44:28.927Z,96706.19
2023-02-21T09:47:01.110Z,96704.53
2023-02-21T09:49:32.906Z,96698.44
2023-02-21T09:52:02.357Z,96695.84
2023-02-21T09:54:35.149Z,96690.22
2023-02-21T09:57:06.784Z,96693.38
2023-02-21T09:59:35.235Z,96692.25
2023-02-21T10:02:19.710Z,96697.06
2023-02-21T10:05:00.785Z,96697.41
2023-02-21T10:07:41.812Z,96695.91
2023-02-21T10:10:18.019Z,96695.72
2023-02-21T10:12:51.505Z,96693.72
2023-02-21T10:15:36.199Z,96689.25
2023-02-21T10:18:19.253Z,96689.59
2023-02-21T10:20:54.703Z,96688.91
2023-02-21T10:23:28.869Z,96693.38
2023-02-21T10:26:07.309Z,96692.69
2023-02-21T10:28:35.918Z,96695.34
2023-02-21T10:31:09.928Z,96691.84
2023-02-21T10:33:40.436Z,96704.03
2023-02-21T10:36:18.423Z,96688.94
2023-02-21T10:38:54.928Z,96686.25
2023-02-21T10:41:26.408Z,96689.22
2023-02-21T10:43:58.383Z,96688.69
2023-02-21T10:46:31.195Z,96686.34
2023-02-21T10:49:18.388Z,96690.47
2023-02-21T10:51:49.170Z,96681.63
2023-02-21T10:54:23.101Z,96678.09
2023-02-21T10:56:54.580Z,96677.22
2023-02-21T10:59:27.580Z,96674.34
2023-02-21T11:01:57.667Z,96670.47
2023-02-21T11:04:29.515Z,96663.09
2023-02-21T11:07:01.527Z,96661.41
2023-02-21T11:09:37.164Z,96655.84
2023-02-21T11:12:19.014Z,96648.78
2023-02-21T11:15:09.116Z,96640.94
2023-02-21T11:17:43.910Z,96637.53
2023-02-21T11:20:24.646Z,96637.47
2023-02-21T11:22:53.161Z,96636.47
2023-02-21T11:25:25.204Z,96632.44
2023-02-21T11:28:05.474Z,96618.75
2023-02-21T11:30:36.707Z,96625.00
2023-02-21T11:33:06.781Z,96616.75
2023-02-21T11:35:38.717Z,96611.53
2023-02-21T11:38:10.030Z,96600.16
2023-02-21T11:40:45.076Z,96598.41
2023-02-21T11:43:21.149Z,96592.13
2023-02-21T11:46:10.079Z,96588.38
2023-02-21T11:48:45.952Z,96578.63
2023-02-21T11:51:28.456Z,96575.66
2023-02-21T11:53:56.830Z,96579.91
2023-02-21T11:56:38.495Z,96572.53
2023-02-21T11:59:21.151Z,96574.91
2023-02-21T12:02:02.560Z,96563.13
2023-02-21T12:04:46.489Z,96558.72
2023-02-21T12:07:24.666Z,96559.22
2023-02-21T12:09:59.355Z,96553.19
2023-02-21T12:12:38.370Z,96549.34
2023-02-21T12:15:19.153Z,96544.53
2023-02-21T12:17:59.483Z,96535.34
2023-02-21T12:20:52.642Z,96543.66
2023-02-21T12:23:29.438Z,96533.81
2023-02-21T12:26:17.532Z,96521.56
2023-02-21T12:29:00.614Z,96511.97
2023-02-21T12:31:46.508Z,96520.41
2023-02-21T12:34:30.694Z,96510.00
2023-02-21T12:37:09.177Z,96514.34
2023-02-21T12:39:56.590Z,96508.63
2023-02-21T12:42:48.813Z,96507.84
2023-02-21T12:45:37.164Z,96504.38
2023-02-21T12:48:13.539Z,96497.03
2023-02-21T12:50:44.903Z,96490.25
2023-02-21T12:53:17.582Z,96485.53
2023-02-21T12:55:49.807Z,96487.81
2023-02-21T12:58:25.116Z,96471.78
2023-02-21T13:00:58.423Z,96465.22
2023-02-21T13:03:43.416Z,96466.28
2023-02-21T13:06:18.091Z,96460.31
2023-02-21T13:08:57.540Z,96453.53
2023-02-21T13:11:33.005Z,96456.59
2023-02-21T13:14:03.059Z,96445.47
2023-02-21T13:16:32.768Z,96455.13
2023-02-21T13:19:05.790Z,96448.34
2023-02-21T13:21:50.737Z,96445.25
2023-02-21T13:24:30.879Z,96435.78
2023-02-21T13:27:33.545Z,96432.28
2023-02-21T13:30:12.633Z,96432.66
2023-02-21T13:32:51.936Z,96422.13
2023-02-21T13:35:30.021Z,96418.25
2023-02-21T13:38:00.496Z,96416.38
2023-02-21T13:40:36.655Z,96413.72
2023-02-21T13:43:14.066Z,96412.84
2023-02-21T13:45:42.567Z,96408.09
2023-02-21T13:48:23.689Z,96396.53
2023-02-21T13:50:54.853Z,96396.50
2023-02-21T13:53:25.221Z,96393.59
2023-02-21T13:56:43.995Z,96388.22
2023-02-21T13:59:34.193Z,96392.31
2023-02-21T14:02:22.767Z,96385.69
2023-02-21T14:05:04.089Z,96384.63
2023-02-21T14:08:01.800Z,96380.50
2023-02-21T14:10:43.059Z,96370.53
2023-02-21T14:13:24.752Z,96364.16
2023-02-21T14:16:09.769Z,96362.91
2023-02-21T14:18:44.166Z,96367.00
2023-02-21T14:21:17.693Z,96362.22
2023-02-21T14:23:55.867Z,96355.84
2023-02-21T14:26:47.961Z,96360.19
2023-02-21T14:29:34.448Z,96349.47
2023-02-21T14:32:26.465Z,96349.19
2023-02-21T14:34:58.065Z,96354.56
2023-02-21T14:37:34.068Z,96348.75
2023-02-21T14:40:22.009Z,96346.22
2023-02-21T14:43:03.220Z,96346.63
2023-02-21T14:45:45.679Z,96343.72
2023-02-21T14:49:01.438Z,96333.81
2023-02-21T14:51:50.677Z,96329.88
2023-02-21T14:55:08.076Z,96330.03
2023-02-21T14:58:07.515Z,96333.91
2023-02-21T15:00:47.955Z,96322.53
2023-02-21T15:03:21.740Z,96317.53
2023-02-21T15:06:03.589Z,96319.09
2023-02-21T15:08:42.196Z,96322.97
2023-02-21T15:11:26.330Z,96313.56
2023-02-21T15:14:23.761Z,96310.00
2023-02-21T15:16:55.591Z,96316.16
2023-02-21T15:19:29.155Z,96310.31
2023-02-21T15:22:19.979Z,96307.94
2023-02-21T15:25:17.804Z,96303.97
2023-02-21T15:28:01.658Z,96296.41
2023-02-21T15:30:35.079Z,96294.81
2023-02-21T15:33:16.105Z,96296.06
2023-02-21T15:35:49.788Z,96289.09
2023-02-21T15:38:23.143Z,96289.38
2023-02-21T15:40:57.158Z,96291.25
2023-02-21T15:43:34.496Z,96292.13
2023-02-21T15:46:06.441Z,96288.06
2023-02-21T15:48:35.859Z,96284.38
2023-02-21T15:51:08.126Z,96282.78
2023-02-21T15:53:36.487Z,96281.97
2023-02-21T15:56:23.953Z,96285.09
2023-02-21T15:59:12.735Z,96284.50
2023-02-21T16:01:42.887Z,96273.22
2023-02-21T16:04:19.641Z,96278.81
2023-02-21T16:06:53.642Z,96276.31
2023-02-21T16:09:25.679Z,96272.00
2023-02-21T16:11:58.988Z,96272.25
2023-02-21T16:14:39.772Z,96265.72
2023-02-21T16:17:23.372Z,96269.81
2023-02-21T16:19:56.122Z,96271.06
2023-02-21T16:22:34.156Z,96263.47
2023-02-21T16:25:14.010Z,96261.19
2023-02-21T16:27:43.864Z,96265.94
2023-02-21T16:30:15.327Z,96262.63
2023-02-21T16:32:47.481Z,96267.38
2023-02-21T16:35:20.716Z,96266.94
2023-02-21T16:37:50.890Z,96262.59
2023-02-21T16:40:23.730Z,96266.47
2023-02-21T16:42:53.465Z,96263.34
2023-02-21T16:45:22.638Z,96275.06
2023-02-21T16:47:57.579Z,96266.59
2023-02-21T16:50:30.905Z,96269.44
2023-02-21T16:52:59.918Z,96272.66
2023-02-21T16:55:28.892Z,96267.06
2023-02-21T16:58:01.133Z,96271.94
2023-02-21T17:00:29.879Z,96278.47
2023-02-21T17:02:59.684Z,96271.63
2023-02-21T17:05:28.107Z,96280.59
2023-02-21T17:07:57.479Z,96283.16
2023-02-21T17:10:25.982Z,96282.06
2023-02-21T17:12:55.000Z,96271.72
2023-02-21T17:15:23.899Z,96280.75
2023-02-21T17:17:53.926Z,96275.31
2023-02-21T17:20:24.449Z,96276.25
2023-02-21T17:22:53.188Z,96281.75
2023-02-21T17:25:22.946Z,96276.22
2023-02-21T17:27:51.691Z,96277.53
2023-02-21T17:30:23.325Z,96275.34
2023-02-21T17:32:52.295Z,96274.50
2023-02-21T17:35:24.639Z,96286.28
2023-02-21T17:37:53.208Z,96292.38
2023-02-21T17:40:22.706Z,96288.41
2023-02-21T17:42:51.245Z,96296.09
2023-02-21T17:45:20.756Z,96290.09
2023-02-21T17:47:49.721Z,96294.88
2023-02-21T17:50:19.103Z,96296.16
2023-02-21T17:52:49.039Z,96298.28
2023-02-21T17:55:20.128Z,96300.19
2023-02-21T17:57:48.483Z,96305.78
2023-02-21T18:00:21.773Z,96297.09
2023-02-21T18:02:58.090Z,96293.69
2023-02-21T18:05:26.439Z,96297.34
2023-02-21T18:07:56.102Z,96294.25
2023-02-21T18:10:26.487Z,96293.69
2023-02-21T18:12:55.400Z,96295.53
2023-02-21T18:15:25.178Z,96290.94
2023-02-21T18:17:53.558Z,96293.31
2023-02-21T18:20:22.209Z,96292.50
2023-02-21T18:22:50.570Z,96291.69
2023-02-21T18:25:21.496Z,96291.22
2023-02-21T18:27:50.281Z,96281.97
2023-02-21T18:30:19.433Z,96287.53
2023-02-21T18:32:47.976Z,96287.41
2023-02-21T18:35:17.569Z,96283.38
2023-02-21T18:37:47.145Z,96287.78
2023-02-21T18:40:16.673Z,96284.59
2023-02-21T18:42:47.624Z,96282.06
2023-02-21T18:45:15.963Z,96283.16
2023-02-21T18:47:44.310Z,96286.69
2023-02-21T18:50:12.782Z,96277.63
2023-02-21T18:52:41.365Z,96281.41
2023-02-21T18:55:09.876Z,96284.75
2023-02-21T18:57:41.792Z,96291.75
2023-02-21T19:00:15.254Z,96287.78
2023-02-21T19:02:43.596Z,96292.75
2023-02-21T19:05:17.209Z,96284.47
2023-02-21T19:07:45.804Z,96282.47
2023-02-21T19:10:17.597Z,96289.56
2023-02-21T19:12:45.955Z,96288.09
2023-02-21T19:15:16.652Z,96286.16
2023-02-21T19:17:45.265Z,96292.16
2023-02-21T19:20:13.866Z,96288.53
2023-02-21T19:22:42.486Z,96291.03
2023-02-21T19:25:10.996Z,96283.59
2023-02-21T19:27:45.360Z,96291.22
2023-02-21T19:30:19.448Z,96287.91
2023-02-21T19:32:54.064Z,96287.13
2023-02-21T19:35:22.406Z,96286.81
2023-02-21T19:37:53.443Z,96295.09
2023-02-21T19:40:22.124Z,96296.44
2023-02-21T19:42:50.518Z,96298.06
2023-02-21T19:45:20.950Z,96291.97
2023-02-21T19:47:49.321Z,96297.09
2023-02-21T19:50:18.412Z,96298.78
2023-02-21T19:52:52.755Z,96301.56
2023-02-21T19:55:21.660Z,96297.25
2023-02-21T19:57:50.492Z,96294.63
2023-02-21T20:00:20.683Z,96294.97
2023-02-21T20:02:49.533Z,96295.13
2023-02-21T20:05:18.773Z,96294.94
2023-02-21T20:07:47.117Z,96299.09
2023-02-21T20:10:18.005Z,96296.28
2023-02-21T20:12:46.526Z,96290.00
2023-02-21T20:15:15.833Z,96296.59
2023-02-21T20:17:45.756Z,96292.84
2023-02-21T20:20:14.164Z,96293.16
2023-02-21T20:22:42.863Z,96291.19
2023-02-21T20:25:11.320Z,96293.31
2023-02-21T20:27:41.769Z,96291.69
2023-02-21T20:30:11.721Z,96288.19
2023-02-21T20:32:40.101Z,96289.03
2023-02-21T20:35:12.590Z,96290.19
2023-02-21T20:37:41.320Z,96288.38
2023-02-21T20:40:11.208Z,96280.75
2023-02-21T20:42:39.781Z,96284.06
2023-02-21T20:45:10.487Z,96284.06
2023-02-21T20:47:39.380Z,96275.81
2023-02-21T20:50:08.773Z,96278.94
2023-02-21T20:52:41.136Z,96272.16
2023-02-21T20:55:10.239Z,96285.38
2023-02-21T20:57:38.713Z,96280.09
2023-02-21T21:00:10.447Z,96277.44
2023-02-21T21:02:39.391Z,96278.75
2023-02-21T21:05:13.797Z,96272.97
2023-02-21T21:07:45.000Z,96272.31
2023-02-21T21:10:15.749Z,96275.28
2023-02-21T21:12:45.465Z,96268.84
2023-02-21T21:15:14.514Z,96268.00
2023-02-21T21:17:43.810Z,96267.03
2023-02-21T21:20:14.386Z,96269.84
2023-02-21T21:22:44.441Z,96263.22
2023-02-21T21:25:13.262Z,96266.84
2023-02-21T21:27:44.335Z,96268.66
2023-02-21T21:30:18.217Z,96259.56
2023-02-21T21:32:46.816Z,96261.69
2023-02-21T21:35:17.652Z,96269.09
2023-02-21T21:37:48.237Z,96265.81
2023-02-21T21:40:17.408Z,96263.50
2023-02-21T21:42:49.111Z,96258.03
2023-02-21T21:45:19.640Z,96263.66
2023-02-21T21:47:50.085Z,96256.84
2023-02-21T21:50:20.445Z,96258.66
2023-02-21T21:52:54.528Z,96266.59
2023-02-21T21:55:25.582Z,96255.53
2023-02-21T21:57:54.521Z,96258.31
2023-02-21T22:00:25.201Z,96250.75
2023-02-21T22:02:57.441Z,96253.53
2023-02-21T22:05:26.420Z,96258.81
2023-02-21T22:07:56.621Z,96248.09
2023-02-21T22:10:26.348Z,96254.75
2023-02-21T22:12:59.869Z,96257.72
2023-02-21T22:15:29.768Z,96261.66
2023-02-21T22:18:02.012Z,96252.25
2023-02-21T22:20:31.859Z,96258.66
2023-02-21T22:23:01.686Z,96254.00
2023-02-21T22:25:32.084Z,96252.34
2023-02-21T22:28:05.169Z,96262.38
2023-02-21T22:30:33.475Z,96255.28
2023-02-21T22:33:01.819Z,96256.19
2023-02-21T22:35:30.483Z,96256.84
2023-02-21T22:38:03.004Z,96254.00
2023-02-21T22:40:35.610Z,96254.66
2023-02-21T22:43:09.005Z,96244.94
2023-02-21T22:45:38.436Z,96255.81
2023-02-21T22:48:10.015Z,96246.56
2023-02-21T22:50:39.477Z,96241.75
2023-02-21T22:53:13.008Z,96240.44
2023-02-21T22:55:41.459Z,96244.13
2023-02-21T22:58:10.895Z,96241.03
2023-02-21T23:00:39.329Z,96243.06
2023-02-21T23:03:13.208Z,96230.69
2023-02-21T23:05:43.633Z,96231.50
2023-02-21T23:08:15.562Z,96229.69
2023-02-21T23:10:44.369Z,96232.03
2023-02-21T23:13:15.324Z,96231.88
2023-02-21T23:15:45.084Z,96233.50
2023-02-21T23:18:20.251Z,96233.34
2023-02-21T23:20:52.549Z,96228.09
2023-02-21T23:23:25.938Z,96226.25
2023-02-21T23:25:56.443Z,96230.72
2023-02-21T23:28:24.788Z,96227.41
2023-02-21T23:30:53.324Z,96225.59
2023-02-21T23:33:25.090Z,96225.44
2023-02-21T23:35:55.277Z,96227.09
2023-02-21T23:38:28.179Z,96227.09
2023-02-21T23:40:59.001Z,96231.06
2023-02-21T23:43:29.534Z,96223.97
2023-02-21T23:45:58.732Z,96234.22
2023-02-21T23:48:27.469Z,96230.75
2023-02-21T23:50:58.299Z,96236.00
2023-02-21T23:53:31.737Z,96231.41
2023-02-21T23:56:00.785Z,96232.56
2023-02-21T23:58:33.307Z,96234.84
